sensor_id;sensor_type;location;lat;lon;timestamp;temperature;humidity
12223;DHT22;6174;49.058;8.524;2023-02-22T05:00:40;5.00;99.90
12223;DHT22;6174;49.058;8.524;2023-02-22T05:03:06;5.00;99.90
12223;DHT22;6174;49.058;8.524;2023-02-22T05:05:34;5.00;99.90
12223;DHT22;6174;49.058;8.524;2023-02-22T05:08:00;4.90;99.90
12223;DHT22;6174;49.058;8.524;2023-02-22T05:10:27;5.00;99.90
12223;DHT22;6174;49.058;8.524;2023-02-22T05:12:54;4.90;99.90
12223;DHT22;6174;49.058;8.524;2023-02-22T05:15:21;4.90;99.90
12223;DHT22;6174;49.058;8.524;2023-02-22T05:17:51;4.90;99.90
12223;DHT22;6174;49.058;8.524;2023-02-22T05:20:23;4.80;99.90
12223;DHT22;6174;49.058;8.524;2023-02-22T05:22:52;4.80;99.90
12223;DHT22;6174;49.058;8.524;2023-02-22T05:25:19;4.80;99.90
12223;DHT22;6174;49.058;8.524;2023-02-22T05:27:49;4.80;99.90
12223;DHT22;6174;49.058;8.524;2023-02-22T05:30:16;4.80;99.90
12223;DHT22;6174;49.058;8.524;2023-02-22T05:32:43;4.90;99.90
12223;DHT22;6174;49.058;8.524;2023-02-22T05:35:12;4.90;99.90
12223;DHT22;6174;49.058;8.524;2023-02-22T05:37:39;5.00;99.90
12223;DHT22;6174;49.058;8.524;2023-02-22T05:40:06;5.00;99.90
12223;DHT22;6174;49.058;8.524;2023-02-22T05:42:33;4.90;99.90
12223;DHT22;6174;49.058;8.524;2023-02-22T05:45:00;4.90;99.90
12223;DHT22;6174;49.058;8.524;2023-02-22T05:47:28;4.90;99.90
12223;DHT22;6174;49.058;8.524;2023-02-22T05:49:55;4.90;99.90
12223;DHT22;6174;49.058;8.524;2023-02-22T05:52:23;4.90;99.90
12223;DHT22;6174;49.058;8.524;2023-02-22T05:54:50;4.90;99.90
12223;DHT22;6174;49.058;8.524;2023-02-22T05:57:17;4.90;99.90
12223;DHT22;6174;49.058;8.524;2023-02-22T05:59:43;4.90;99.90
12223;DHT22;6174;49.058;8.524;2023-02-22T06:02:10;4.80;99.90
12223;DHT22;6174;49.058;8.524;2023-02-22T06:04:37;4.80;99.90
12223;DHT22;6174;49.058;8.524;2023-02-22T06:07:04;4.80;99.90
12223;DHT22;6174;49.058;8.524;2023-02-22T06:09:33;4.80;99.90
12223;DHT22;6174;49.058;8.524;2023-02-22T06:12:00;4.90;99.90
12223;DHT22;6174;49.058;8.524;2023-02-22T06:14:26;4.70;99.90
12223;DHT22;6174;49.058;8.524;2023-02-22T06:16:53;4.80;99.90
12223;DHT22;6174;49.058;8.524;2023-02-22T06:19:27;4.80;99.90
12223;DHT22;6174;49.058;8.524;2023-02-22T06:22:13;4.80;99.90
12223;DHT22;6174;49.058;8.524;2023-02-22T06:25:02;4.80;99.90
12223;DHT22;6174;49.058;8.524;2023-02-22T06:27:34;4.80;99.90
12223;DHT22;6174;49.058;8.524;2023-02-22T06:30:07;4.60;99.90
12223;DHT22;6174;49.058;8.524;2023-02-22T06:32:40;4.70;99.90
12223;DHT22;6174;49.058;8.524;2023-02-22T06:35:11;4.70;99.90
12223;DHT22;6174;49.058;8.524;2023-02-22T06:37:57;4.70;99.90
12223;DHT22;6174;49.058;8.524;2023-02-22T06:40:26;4.70;99.90
12223;DHT22;6174;49.058;8.524;2023-02-22T06:42:54;4.80;99.90
12223;DHT22;6174;49.058;8.524;2023-02-22T06:45:22;4.70;99.90
12223;DHT22;6174;49.058;8.524;2023-02-22T06:47:51;4.30;99.90
12223;DHT22;6174;49.058;8.524;2023-02-22T06:50:23;5.40;99.90
12223;DHT22;6174;49.058;8.524;2023-02-22T06:52:56;4.80;99.90
12223;DHT22;6174;49.058;8.524;2023-02-22T06:55:30;4.80;99.90
12223;DHT22;6174;49.058;8.524;2023-02-22T06:57:57;4.90;99.90
12223;DHT22;6174;49.058;8.524;2023-02-22T07:00:28;5.10;99.90
12223;DHT22;6174;49.058;8.524;2023-02-22T07:03:01;5.10;99.90
12223;DHT22;6174;49.058;8.524;2023-02-22T07:05:47;5.10;99.90
12223;DHT22;6174;49.058;8.524;2023-02-22T07:08:14;5.70;99.90
12223;DHT22;6174;49.058;8.524;2023-02-22T07:11:05;5.80;99.90
12223;DHT22;6174;49.058;8.524;2023-02-22T07:13:43;5.30;99.90
12223;DHT22;6174;49.058;8.524;2023-02-22T07:19:23;5.30;99.90
12223;DHT22;6174;49.058;8.524;2023-02-22T07:21:53;5.30;99.90
12223;DHT22;6174;49.058;8.524;2023-02-22T07:24:34;5.40;99.90
12223;DHT22;6174;49.058;8.524;2023-02-22T07:27:02;5.50;99.90
12223;DHT22;6174;49.058;8.524;2023-02-22T07:29:29;5.50;99.90
12223;DHT22;6174;49.058;8.524;2023-02-22T07:35:14;5.50;99.90
12223;DHT22;6174;49.058;8.524;2023-02-22T07:37:46;5.50;99.90
12223;DHT22;6174;49.058;8.524;2023-02-22T07:46:45;5.70;99.90
12223;DHT22;6174;49.058;8.524;2023-02-22T07:49:13;6.20;99.90
12223;DHT22;6174;49.058;8.524;2023-02-22T07:51:46;5.80;99.90
12223;DHT22;6174;49.058;8.524;2023-02-22T07:54:18;6.60;99.90
12223;DHT22;6174;49.058;8.524;2023-02-22T07:56:54;5.90;99.90
12223;DHT22;6174;49.058;8.524;2023-02-22T07:59:22;6.00;99.90
12223;DHT22;6174;49.058;8.524;2023-02-22T08:01:50;6.10;99.90
12223;DHT22;6174;49.058;8.524;2023-02-22T08:04:21;6.00;99.90
12223;DHT22;6174;49.058;8.524;2023-02-22T08:06:57;6.00;99.90
12223;DHT22;6174;49.058;8.524;2023-02-22T08:09:46;5.90;99.90
12223;DHT22;6174;49.058;8.524;2023-02-22T08:12:28;6.10;99.90
12223;DHT22;6174;49.058;8.524;2023-02-22T08:15:26;6.00;99.90
12223;DHT22;6174;49.058;8.524;2023-02-22T08:18:08;6.00;99.90
12223;DHT22;6174;49.058;8.524;2023-02-22T08:20:36;6.10;99.90
12223;DHT22;6174;49.058;8.524;2023-02-22T08:23:07;6.10;99.90
12223;DHT22;6174;49.058;8.524;2023-02-22T08:25:34;6.20;99.90
12223;DHT22;6174;49.058;8.524;2023-02-22T08:28:07;6.30;99.90
12223;DHT22;6174;49.058;8.524;2023-02-22T08:30:36;6.20;99.90
12223;DHT22;6174;49.058;8.524;2023-02-22T08:33:05;6.90;99.90
12223;DHT22;6174;49.058;8.524;2023-02-22T08:35:35;6.70;99.90
12223;DHT22;6174;49.058;8.524;2023-02-22T08:38:13;6.60;99.90
12223;DHT22;6174;49.058;8.524;2023-02-22T08:40:49;6.70;99.90
12223;DHT22;6174;49.058;8.524;2023-02-22T08:43:20;6.80;99.90
12223;DHT22;6174;49.058;8.524;2023-02-22T08:45:51;6.90;99.90
12223;DHT22;6174;49.058;8.524;2023-02-22T08:48:27;7.00;99.90
12223;DHT22;6174;49.058;8.524;2023-02-22T08:50:58;7.10;99.90
12223;DHT22;6174;49.058;8.524;2023-02-22T08:53:30;7.20;99.90
12223;DHT22;6174;49.058;8.524;2023-02-22T08:56:05;7.30;99.90
12223;DHT22;6174;49.058;8.524;2023-02-22T08:58:34;7.30;99.90
12223;DHT22;6174;49.058;8.524;2023-02-22T09:01:03;7.30;99.90
12223;DHT22;6174;49.058;8.524;2023-02-22T09:03:32;7.50;99.90
12223;DHT22;6174;49.058;8.524;2023-02-22T09:05:59;7.60;99.90
12223;DHT22;6174;49.058;8.524;2023-02-22T09:08:26;7.70;99.90
12223;DHT22;6174;49.058;8.524;2023-02-22T09:10:54;7.70;99.90
12223;DHT22;6174;49.058;8.524;2023-02-22T09:13:21;7.60;99.90
12223;DHT22;6174;49.058;8.524;2023-02-22T09:15:49;7.80;99.90
12223;DHT22;6174;49.058;8.524;2023-02-22T09:18:19;7.90;99.90
12223;DHT22;6174;49.058;8.524;2023-02-22T09:20:49;8.00;99.90
12223;DHT22;6174;49.058;8.524;2023-02-22T09:23:18;8.20;99.90
12223;DHT22;6174;49.058;8.524;2023-02-22T09:25:47;8.10;99.90
12223;DHT22;6174;49.058;8.524;2023-02-22T09:28:14;8.20;99.90
12223;DHT22;6174;49.058;8.524;2023-02-22T09:30:42;8.10;99.90
12223;DHT22;6174;49.058;8.524;2023-02-22T09:33:12;8.10;99.90
12223;DHT22;6174;49.058;8.524;2023-02-22T09:35:41;8.20;99.90
12223;DHT22;6174;49.058;8.524;2023-02-22T09:38:15;8.70;99.90
12223;DHT22;6174;49.058;8.524;2023-02-22T09:40:46;8.70;99.90
12223;DHT22;6174;49.058;8.524;2023-02-22T09:43:36;8.40;99.90
12223;DHT22;6174;49.058;8.524;2023-02-22T09:46:28;8.70;99.90
12223;DHT22;6174;49.058;8.524;2023-02-22T09:49:17;8.60;99.90
12223;DHT22;6174;49.058;8.524;2023-02-22T09:51:49;8.60;99.90
12223;DHT22;6174;49.058;8.524;2023-02-22T09:54:22;8.60;99.90
12223;DHT22;6174;49.058;8.524;2023-02-22T09:56:54;8.70;99.90
12223;DHT22;6174;49.058;8.524;2023-02-22T09:59:25;8.70;99.90
12223;DHT22;6174;49.058;8.524;2023-02-22T10:01:58;8.80;99.90
12223;DHT22;6174;49.058;8.524;2023-02-22T10:04:37;8.80;99.90
12223;DHT22;6174;49.058;8.524;2023-02-22T10:07:14;8.90;99.90
12223;DHT22;6174;49.058;8.524;2023-02-22T10:09:46;9.10;99.90
12223;DHT22;6174;49.058;8.524;2023-02-22T10:12:22;9.30;99.90
12223;DHT22;6174;49.058;8.524;2023-02-22T10:15:13;9.30;99.90
12223;DHT22;6174;49.058;8.524;2023-02-22T10:17:48;9.40;99.90
12223;DHT22;6174;49.058;8.524;2023-02-22T10:20:34;9.50;99.90
12223;DHT22;6174;49.058;8.524;2023-02-22T10:23:08;9.60;99.90
12223;DHT22;6174;49.058;8.524;2023-02-22T10:25:39;9.60;99.90
12223;DHT22;6174;49.058;8.524;2023-02-22T10:28:12;9.70;99.90
12223;DHT22;6174;49.058;8.524;2023-02-22T10:30:44;9.70;99.90
12223;DHT22;6174;49.058;8.524;2023-02-22T10:33:20;9.90;99.90
12223;DHT22;6174;49.058;8.524;2023-02-22T10:35:48;9.90;99.90
12223;DHT22;6174;49.058;8.524;2023-02-22T10:38:18;10.00;99.90
12223;DHT22;6174;49.058;8.524;2023-02-22T10:40:52;10.10;99.90
12223;DHT22;6174;49.058;8.524;2023-02-22T10:43:21;10.10;99.90
12223;DHT22;6174;49.058;8.524;2023-02-22T10:45:51;10.20;99.90
12223;DHT22;6174;49.058;8.524;2023-02-22T10:48:21;10.30;99.90
12223;DHT22;6174;49.058;8.524;2023-02-22T10:50:51;10.40;99.90
12223;DHT22;6174;49.058;8.524;2023-02-22T10:53:19;10.50;99.90
12223;DHT22;6174;49.058;8.524;2023-02-22T10:56:13;10.50;99.90
12223;DHT22;6174;49.058;8.524;2023-02-22T10:58:44;10.60;99.90
12223;DHT22;6174;49.058;8.524;2023-02-22T11:01:20;10.80;99.90
12223;DHT22;6174;49.058;8.524;2023-02-22T11:03:59;10.80;99.90
12223;DHT22;6174;49.058;8.524;2023-02-22T11:06:27;10.90;99.90
12223;DHT22;6174;49.058;8.524;2023-02-22T11:09:04;11.00;99.90
12223;DHT22;6174;49.058;8.524;2023-02-22T11:11:37;11.00;99.90
12223;DHT22;6174;49.058;8.524;2023-02-22T11:14:04;11.10;99.90
12223;DHT22;6174;49.058;8.524;2023-02-22T11:16:33;11.20;99.90
12223;DHT22;6174;49.058;8.524;2023-02-22T11:19:10;11.30;99.90
12223;DHT22;6174;49.058;8.524;2023-02-22T11:21:38;11.40;99.90
12223;DHT22;6174;49.058;8.524;2023-02-22T11:24:07;11.40;99.90
12223;DHT22;6174;49.058;8.524;2023-02-22T11:26:40;11.40;99.90
12223;DHT22;6174;49.058;8.524;2023-02-22T11:29:10;11.40;99.80
12223;DHT22;6174;49.058;8.524;2023-02-22T11:31:41;11.60;99.70
12223;DHT22;6174;49.058;8.524;2023-02-22T11:34:28;11.40;98.90
12223;DHT22;6174;49.058;8.524;2023-02-22T11:36:56;11.60;98.90
12223;DHT22;6174;49.058;8.524;2023-02-22T11:39:40;11.70;99.00
12223;DHT22;6174;49.058;8.524;2023-02-22T11:42:20;11.70;98.90
12223;DHT22;6174;49.058;8.524;2023-02-22T11:44:48;11.70;99.00
12223;DHT22;6174;49.058;8.524;2023-02-22T11:47:14;11.70;98.80
12223;DHT22;6174;49.058;8.524;2023-02-22T11:49:43;11.70;98.30
12223;DHT22;6174;49.058;8.524;2023-02-22T11:52:19;11.70;98.40
12223;DHT22;6174;49.058;8.524;2023-02-22T11:55:02;11.80;97.90
12223;DHT22;6174;49.058;8.524;2023-02-22T11:57:43;11.90;97.70
12223;DHT22;6174;49.058;8.524;2023-02-22T12:00:18;11.80;97.00
12223;DHT22;6174;49.058;8.524;2023-02-22T12:03:25;11.90;97.60
12223;DHT22;6174;49.058;8.524;2023-02-22T12:06:08;12.00;98.10
12223;DHT22;6174;49.058;8.524;2023-02-22T12:08:45;12.70;97.50
12223;DHT22;6174;49.058;8.524;2023-02-22T12:11:19;12.10;96.40
12223;DHT22;6174;49.058;8.524;2023-02-22T12:14:02;12.20;96.50
12223;DHT22;6174;49.058;8.524;2023-02-22T12:16:43;12.30;96.00
12223;DHT22;6174;49.058;8.524;2023-02-22T12:19:20;12.40;96.00
12223;DHT22;6174;49.058;8.524;2023-02-22T12:21:54;12.50;96.20
12223;DHT22;6174;49.058;8.524;2023-02-22T12:24:25;12.50;95.40
12223;DHT22;6174;49.058;8.524;2023-02-22T12:26:58;12.60;95.70
12223;DHT22;6174;49.058;8.524;2023-02-22T12:29:32;12.80;95.10
12223;DHT22;6174;49.058;8.524;2023-02-22T12:32:04;12.90;94.30
12223;DHT22;6174;49.058;8.524;2023-02-22T12:34:36;12.90;94.70
12223;DHT22;6174;49.058;8.524;2023-02-22T12:37:12;13.10;93.30
12223;DHT22;6174;49.058;8.524;2023-02-22T12:39:48;13.00;93.10
12223;DHT22;6174;49.058;8.524;2023-02-22T12:42:21;13.30;91.90
12223;DHT22;6174;49.058;8.524;2023-02-22T12:44:56;13.30;92.00
12223;DHT22;6174;49.058;8.524;2023-02-22T12:47:29;13.30;91.20
12223;DHT22;6174;49.058;8.524;2023-02-22T12:50:02;13.30;91.50
12223;DHT22;6174;49.058;8.524;2023-02-22T12:52:43;13.40;90.40
12223;DHT22;6174;49.058;8.524;2023-02-22T12:55:15;13.30;90.70
12223;DHT22;6174;49.058;8.524;2023-02-22T12:57:48;13.30;90.90
12223;DHT22;6174;49.058;8.524;2023-02-22T13:00:20;13.40;90.50
12223;DHT22;6174;49.058;8.524;2023-02-22T13:02:55;13.60;88.50
12223;DHT22;6174;49.058;8.524;2023-02-22T13:05:24;13.60;87.10
12223;DHT22;6174;49.058;8.524;2023-02-22T13:08:01;13.60;87.90
12223;DHT22;6174;49.058;8.524;2023-02-22T13:10:52;13.60;87.10
12223;DHT22;6174;49.058;8.524;2023-02-22T13:13:25;13.60;86.70
12223;DHT22;6174;49.058;8.524;2023-02-22T13:16:00;13.60;87.70
12223;DHT22;6174;49.058;8.524;2023-02-22T13:18:34;13.60;88.50
12223;DHT22;6174;49.058;8.524;2023-02-22T13:21:08;13.70;87.80
12223;DHT22;6174;49.058;8.524;2023-02-22T13:23:44;13.70;87.60
12223;DHT22;6174;49.058;8.524;2023-02-22T13:26:18;13.80;87.40
12223;DHT22;6174;49.058;8.524;2023-02-22T13:28:51;13.80;87.50
12223;DHT22;6174;49.058;8.524;2023-02-22T13:31:38;13.70;86.20
12223;DHT22;6174;49.058;8.524;2023-02-22T13:34:20;13.70;87.60
12223;DHT22;6174;49.058;8.524;2023-02-22T13:37:04;13.60;88.20
12223;DHT22;6174;49.058;8.524;2023-02-22T13:42:36;13.80;87.70
12223;DHT22;6174;49.058;8.524;2023-02-22T13:45:41;13.90;88.00
12223;DHT22;6174;49.058;8.524;2023-02-22T13:51:32;14.00;88.00
12223;DHT22;6174;49.058;8.524;2023-02-22T13:54:02;14.00;88.00
12223;DHT22;6174;49.058;8.524;2023-02-22T13:56:31;14.00;87.70
12223;DHT22;6174;49.058;8.524;2023-02-22T13:58:59;14.00;87.50
12223;DHT22;6174;49.058;8.524;2023-02-22T14:01:42;14.10;88.00
12223;DHT22;6174;49.058;8.524;2023-02-22T14:10:47;14.00;88.60
12223;DHT22;6174;49.058;8.524;2023-02-22T14:13:16;14.00;88.90
12223;DHT22;6174;49.058;8.524;2023-02-22T14:16:15;14.10;89.10
12223;DHT22;6174;49.058;8.524;2023-02-22T14:18:43;14.00;89.90
12223;DHT22;6174;49.058;8.524;2023-02-22T14:21:11;14.10;90.00
12223;DHT22;6174;49.058;8.524;2023-02-22T14:23:40;14.10;90.00
12223;DHT22;6174;49.058;8.524;2023-02-22T14:26:15;14.10;90.40
12223;DHT22;6174;49.058;8.524;2023-02-22T14:28:49;14.10;90.20
12223;DHT22;6174;49.058;8.524;2023-02-22T14:31:21;14.10;90.30
12223;DHT22;6174;49.058;8.524;2023-02-22T14:34:03;14.10;90.80
12223;DHT22;6174;49.058;8.524;2023-02-22T14:36:34;14.10;90.70
12223;DHT22;6174;49.058;8.524;2023-02-22T14:39:11;14.00;90.80
12223;DHT22;6174;49.058;8.524;2023-02-22T14:41:43;13.90;90.90
12223;DHT22;6174;49.058;8.524;2023-02-22T14:44:13;14.00;91.00
12223;DHT22;6174;49.058;8.524;2023-02-22T14:46:45;13.90;91.30
12223;DHT22;6174;49.058;8.524;2023-02-22T14:49:17;13.90;91.90
12223;DHT22;6174;49.058;8.524;2023-02-22T14:51:50;13.70;91.70
12223;DHT22;6174;49.058;8.524;2023-02-22T14:54:26;13.80;91.70
12223;DHT22;6174;49.058;8.524;2023-02-22T14:57:01;13.80;92.00
12223;DHT22;6174;49.058;8.524;2023-02-22T14:59:46;13.70;92.30
12223;DHT22;6174;49.058;8.524;2023-02-22T15:02:13;13.70;92.60
12223;DHT22;6174;49.058;8.524;2023-02-22T15:04:40;13.60;92.70
12223;DHT22;6174;49.058;8.524;2023-02-22T15:07:19;13.60;92.80
12223;DHT22;6174;49.058;8.524;2023-02-22T15:10:03;13.50;92.80
12223;DHT22;6174;49.058;8.524;2023-02-22T15:12:31;13.50;92.80
12223;DHT22;6174;49.058;8.524;2023-02-22T15:15:15;13.60;93.10
12223;DHT22;6174;49.058;8.524;2023-02-22T15:17:47;13.50;93.00
12223;DHT22;6174;49.058;8.524;2023-02-22T15:20:15;13.50;93.20
12223;DHT22;6174;49.058;8.524;2023-02-22T15:22:45;13.40;93.50
12223;DHT22;6174;49.058;8.524;2023-02-22T15:25:13;13.40;93.40
12223;DHT22;6174;49.058;8.524;2023-02-22T15:27:44;13.40;93.90
12223;DHT22;6174;49.058;8.524;2023-02-22T15:30:20;13.40;93.80
12223;DHT22;6174;49.058;8.524;2023-02-22T15:32:47;13.40;93.80
12223;DHT22;6174;49.058;8.524;2023-02-22T15:35:16;13.50;93.60
12223;DHT22;6174;49.058;8.524;2023-02-22T15:37:45;13.50;93.20
12223;DHT22;6174;49.058;8.524;2023-02-22T15:40:15;13.40;93.10
12223;DHT22;6174;49.058;8.524;2023-02-22T15:42:45;13.50;93.20
12223;DHT22;6174;49.058;8.524;2023-02-22T15:45:17;13.40;93.60
12223;DHT22;6174;49.058;8.524;2023-02-22T15:47:45;13.30;93.20
12223;DHT22;6174;49.058;8.524;2023-02-22T15:50:13;13.30;93.20
12223;DHT22;6174;49.058;8.524;2023-02-22T15:52:46;13.20;93.10
12223;DHT22;6174;49.058;8.524;2023-02-22T15:55:15;13.20;93.00
12223;DHT22;6174;49.058;8.524;2023-02-22T15:57:44;13.20;93.10
12223;DHT22;6174;49.058;8.524;2023-02-22T16:00:19;13.20;92.80
12223;DHT22;6174;49.058;8.524;2023-02-22T16:02:47;13.10;92.80
12223;DHT22;6174;49.058;8.524;2023-02-22T16:05:16;13.10;93.00
12223;DHT22;6174;49.058;8.524;2023-02-22T16:07:46;13.10;93.10
12223;DHT22;6174;49.058;8.524;2023-02-22T16:10:20;13.10;93.20
12223;DHT22;6174;49.058;8.524;2023-02-22T16:12:49;13.00;93.40
12223;DHT22;6174;49.058;8.524;2023-02-22T16:15:31;13.00;93.40
12223;DHT22;6174;49.058;8.524;2023-02-22T16:18:16;12.90;93.70
12223;DHT22;6174;49.058;8.524;2023-02-22T16:20:43;12.80;94.10
12223;DHT22;6174;49.058;8.524;2023-02-22T16:23:22;12.70;94.30
12223;DHT22;6174;49.058;8.524;2023-02-22T16:26:17;12.70;94.50
12223;DHT22;6174;49.058;8.524;2023-02-22T16:28:51;12.70;94.60
12223;DHT22;6174;49.058;8.524;2023-02-22T16:31:19;12.60;94.80
12223;DHT22;6174;49.058;8.524;2023-02-22T16:33:47;12.60;94.90
12223;DHT22;6174;49.058;8.524;2023-02-22T16:36:16;12.50;95.30
12223;DHT22;6174;49.058;8.524;2023-02-22T16:38:43;12.50;95.40
12223;DHT22;6174;49.058;8.524;2023-02-22T16:41:13;12.50;95.30
12223;DHT22;6174;49.058;8.524;2023-02-22T16:43:45;12.60;95.30
12223;DHT22;6174;49.058;8.524;2023-02-22T16:46:13;12.50;95.60
12223;DHT22;6174;49.058;8.524;2023-02-22T16:48:41;12.50;95.70
12223;DHT22;6174;49.058;8.524;2023-02-22T16:51:17;12.50;95.90
12223;DHT22;6174;49.058;8.524;2023-02-22T16:53:44;12.50;96.00
12223;DHT22;6174;49.058;8.524;2023-02-22T16:56:15;12.50;95.80
12223;DHT22;6174;49.058;8.524;2023-02-22T16:58:43;12.40;95.80
12223;DHT22;6174;49.058;8.524;2023-02-22T17:01:13;12.30;96.00
12223;DHT22;6174;49.058;8.524;2023-02-22T17:03:39;12.20;96.40
12223;DHT22;6174;49.058;8.524;2023-02-22T17:06:07;12.30;96.50
12223;DHT22;6174;49.058;8.524;2023-02-22T17:08:35;12.30;96.70
12223;DHT22;6174;49.058;8.524;2023-02-22T17:11:02;12.20;96.90
12223;DHT22;6174;49.058;8.524;2023-02-22T17:13:29;12.20;97.10
12223;DHT22;6174;49.058;8.524;2023-02-22T17:15:56;12.00;97.00
12223;DHT22;6174;49.058;8.524;2023-02-22T17:18:25;12.20;97.30
12223;DHT22;6174;49.058;8.524;2023-02-22T17:20:53;12.20;97.30
12223;DHT22;6174;49.058;8.524;2023-02-22T17:23:26;12.10;97.60
12223;DHT22;6174;49.058;8.524;2023-02-22T17:25:54;12.10;97.80
12223;DHT22;6174;49.058;8.524;2023-02-22T17:28:22;12.10;97.90
12223;DHT22;6174;49.058;8.524;2023-02-22T17:31:00;12.10;98.30
12223;DHT22;6174;49.058;8.524;2023-02-22T17:33:29;12.10;98.60
12223;DHT22;6174;49.058;8.524;2023-02-22T17:35:58;12.10;98.90
12223;DHT22;6174;49.058;8.524;2023-02-22T17:38:26;12.10;99.40
12223;DHT22;6174;49.058;8.524;2023-02-22T17:40:56;12.10;99.90
12223;DHT22;6174;49.058;8.524;2023-02-22T17:43:23;12.10;99.90
12223;DHT22;6174;49.058;8.524;2023-02-22T17:45:53;12.10;99.90
12223;DHT22;6174;49.058;8.524;2023-02-22T17:48:20;12.10;99.90
12223;DHT22;6174;49.058;8.524;2023-02-22T17:50:48;12.10;99.90
12223;DHT22;6174;49.058;8.524;2023-02-22T17:53:15;12.00;99.90
12223;DHT22;6174;49.058;8.524;2023-02-22T17:55:46;12.00;99.90
12223;DHT22;6174;49.058;8.524;2023-02-22T17:58:13;12.00;99.90
12223;DHT22;6174;49.058;8.524;2023-02-22T18:00:42;12.00;99.90
12223;DHT22;6174;49.058;8.524;2023-02-22T18:03:11;12.00;99.90
12223;DHT22;6174;49.058;8.524;2023-02-22T18:05:39;11.90;99.90
12223;DHT22;6174;49.058;8.524;2023-02-22T18:08:08;11.90;99.90
12223;DHT22;6174;49.058;8.524;2023-02-22T18:10:35;11.90;99.90
12223;DHT22;6174;49.058;8.524;2023-02-22T18:13:02;11.90;99.90
12223;DHT22;6174;49.058;8.524;2023-02-22T18:15:29;11.90;99.90
12223;DHT22;6174;49.058;8.524;2023-02-22T18:18:00;11.80;99.90
12223;DHT22;6174;49.058;8.524;2023-02-22T18:20:27;11.80;99.90
12223;DHT22;6174;49.058;8.524;2023-02-22T18:23:03;11.70;99.90
12223;DHT22;6174;49.058;8.524;2023-02-22T18:25:33;11.80;99.90
12223;DHT22;6174;49.058;8.524;2023-02-22T18:28:00;11.80;99.90
12223;DHT22;6174;49.058;8.524;2023-02-22T18:30:28;11.80;99.90
12223;DHT22;6174;49.058;8.524;2023-02-22T18:32:55;11.70;99.90
12223;DHT22;6174;49.058;8.524;2023-02-22T18:35:21;11.70;99.90
12223;DHT22;6174;49.058;8.524;2023-02-22T18:37:48;11.70;99.90
12223;DHT22;6174;49.058;8.524;2023-02-22T18:40:15;11.60;99.90
12223;DHT22;6174;49.058;8.524;2023-02-22T18:42:45;11.60;99.90
12223;DHT22;6174;49.058;8.524;2023-02-22T18:45:12;11.50;99.90
12223;DHT22;6174;49.058;8.524;2023-02-22T18:47:41;11.50;99.90
12223;DHT22;6174;49.058;8.524;2023-02-22T18:50:10;11.50;99.90
12223;DHT22;6174;49.058;8.524;2023-02-22T18:52:38;11.40;99.90
12223;DHT22;6174;49.058;8.524;2023-02-22T18:55:11;11.30;99.90
12223;DHT22;6174;49.058;8.524;2023-02-22T18:57:38;11.30;99.90
12223;DHT22;6174;49.058;8.524;2023-02-22T19:00:07;11.20;99.90
12223;DHT22;6174;49.058;8.524;2023-02-22T19:02:35;11.10;99.90
12223;DHT22;6174;49.058;8.524;2023-02-22T19:05:02;11.10;99.90
12223;DHT22;6174;49.058;8.524;2023-02-22T19:07:30;11.00;99.90
12223;DHT22;6174;49.058;8.524;2023-02-22T19:09:58;11.00;99.90
12223;DHT22;6174;49.058;8.524;2023-02-22T19:12:27;10.90;99.90
12223;DHT22;6174;49.058;8.524;2023-02-22T19:14:56;10.90;99.90
12223;DHT22;6174;49.058;8.524;2023-02-22T19:17:25;10.90;99.90
12223;DHT22;6174;49.058;8.524;2023-02-22T19:19:53;10.90;99.90
12223;DHT22;6174;49.058;8.524;2023-02-22T19:22:19;10.80;99.90
12223;DHT22;6174;49.058;8.524;2023-02-22T19:24:50;10.80;99.90
12223;DHT22;6174;49.058;8.524;2023-02-22T19:27:19;10.80;99.90
12223;DHT22;6174;49.058;8.524;2023-02-22T19:29:46;10.70;99.90
12223;DHT22;6174;49.058;8.524;2023-02-22T19:32:12;10.70;99.90
12223;DHT22;6174;49.058;8.524;2023-02-22T19:34:43;10.70;99.90
12223;DHT22;6174;49.058;8.524;2023-02-22T19:37:09;10.60;99.90
12223;DHT22;6174;49.058;8.524;2023-02-22T19:39:37;10.50;99.90
12223;DHT22;6174;49.058;8.524;2023-02-22T19:42:07;10.60;99.90
12223;DHT22;6174;49.058;8.524;2023-02-22T19:44:35;10.60;99.90
12223;DHT22;6174;49.058;8.524;2023-02-22T19:47:03;10.60;99.90
12223;DHT22;6174;49.058;8.524;2023-02-22T19:49:34;10.70;99.90
12223;DHT22;6174;49.058;8.524;2023-02-22T19:52:03;10.70;99.90
12223;DHT22;6174;49.058;8.524;2023-02-22T19:54:31;10.70;99.90
12223;DHT22;6174;49.058;8.524;2023-02-22T19:56:57;10.70;99.90
12223;DHT22;6174;49.058;8.524;2023-02-22T19:59:25;10.60;99.90
12223;DHT22;6174;49.058;8.524;2023-02-22T20:01:52;10.60;99.90
12223;DHT22;6174;49.058;8.524;2023-02-22T20:04:19;10.60;99.90
12223;DHT22;6174;49.058;8.524;2023-02-22T20:06:48;10.50;99.90
12223;DHT22;6174;49.058;8.524;2023-02-22T20:09:19;10.50;99.90
12223;DHT22;6174;49.058;8.524;2023-02-22T20:11:48;10.50;99.90
12223;DHT22;6174;49.058;8.524;2023-02-22T20:14:18;10.50;99.90
12223;DHT22;6174;49.058;8.524;2023-02-22T20:16:45;10.40;99.90
12223;DHT22;6174;49.058;8.524;2023-02-22T20:19:11;10.50;99.90
12223;DHT22;6174;49.058;8.524;2023-02-22T20:21:38;10.50;99.90
12223;DHT22;6174;49.058;8.524;2023-02-22T20:24:07;10.60;99.90
12223;DHT22;6174;49.058;8.524;2023-02-22T20:26:38;10.60;99.90
12223;DHT22;6174;49.058;8.524;2023-02-22T20:29:06;10.70;99.90
12223;DHT22;6174;49.058;8.524;2023-02-22T20:31:34;10.80;99.90
12223;DHT22;6174;49.058;8.524;2023-02-22T20:34:01;10.80;99.90
12223;DHT22;6174;49.058;8.524;2023-02-22T20:36:30;10.90;99.90
12223;DHT22;6174;49.058;8.524;2023-02-22T20:39:00;10.90;99.90
12223;DHT22;6174;49.058;8.524;2023-02-22T20:41:28;11.00;99.90
12223;DHT22;6174;49.058;8.524;2023-02-22T20:43:58;11.00;99.90
12223;DHT22;6174;49.058;8.524;2023-02-22T20:46:26;11.00;99.90
12223;DHT22;6174;49.058;8.524;2023-02-22T20:48:56;11.00;99.90
12223;DHT22;6174;49.058;8.524;2023-02-22T20:51:24;11.00;99.90
12223;DHT22;6174;49.058;8.524;2023-02-22T20:53:51;11.00;99.90
12223;DHT22;6174;49.058;8.524;2023-02-22T20:56:19;11.00;99.90
12223;DHT22;6174;49.058;8.524;2023-02-22T20:58:46;11.00;99.90
12223;DHT22;6174;49.058;8.524;2023-02-22T21:01:16;11.00;99.90
12223;DHT22;6174;49.058;8.524;2023-02-22T21:03:43;11.00;99.90
12223;DHT22;6174;49.058;8.524;2023-02-22T21:06:11;11.00;99.90
12223;DHT22;6174;49.058;8.524;2023-02-22T21:08:39;11.00;99.90
12223;DHT22;6174;49.058;8.524;2023-02-22T21:11:09;11.00;99.90
12223;DHT22;6174;49.058;8.524;2023-02-22T21:13:36;11.00;99.90
12223;DHT22;6174;49.058;8.524;2023-02-22T21:16:03;11.00;99.90
12223;DHT22;6174;49.058;8.524;2023-02-22T21:18:32;11.00;99.90
12223;DHT22;6174;49.058;8.524;2023-02-22T21:21:01;11.00;99.90
12223;DHT22;6174;49.058;8.524;2023-02-22T21:23:34;11.00;99.90
12223;DHT22;6174;49.058;8.524;2023-02-22T21:26:01;11.00;99.90
12223;DHT22;6174;49.058;8.524;2023-02-22T21:28:28;11.10;99.90
12223;DHT22;6174;49.058;8.524;2023-02-22T21:30:55;11.10;99.90
12223;DHT22;6174;49.058;8.524;2023-02-22T21:33:28;11.20;99.90
12223;DHT22;6174;49.058;8.524;2023-02-22T21:35:59;11.20;99.90
12223;DHT22;6174;49.058;8.524;2023-02-22T21:38:26;11.10;99.90
12223;DHT22;6174;49.058;8.524;2023-02-22T21:40:53;11.00;99.90
12223;DHT22;6174;49.058;8.524;2023-02-22T21:43:23;11.00;99.90
12223;DHT22;6174;49.058;8.524;2023-02-22T21:45:49;11.00;99.90